createdAt,value
2018-12-29T00:01:44.500Z,84.05
2018-12-29T00:04:14.968Z,82.35
2018-12-29T00:06:45.222Z,85.87
2018-12-29T00:09:15.502Z,85.40
2018-12-29T00:11:45.863Z,80.62
2018-12-29T00:14:16.226Z,83.50
2018-12-29T00:16:46.558Z,78.45
2018-12-29T00:19:16.920Z,81.85
2018-12-29T00:21:47.261Z,79.45
2018-12-29T00:24:17.614Z,80.28
2018-12-29T00:26:47.962Z,77.58
2018-12-29T00:29:18.358Z,75.65
2018-12-29T00:31:48.697Z,75.22
2018-12-29T00:34:18.992Z,73.97
2018-12-29T00:36:49.259Z,75.95
2018-12-29T00:39:19.620Z,75.37
2018-12-29T00:41:49.967Z,72.90
2018-12-29T00:44:20.318Z,72.25
2018-12-29T00:46:50.639Z,71.97
2018-12-29T00:53:05.707Z,69.47
2018-12-29T00:55:35.973Z,67.00
2018-12-29T01:01:02.419Z,67.50
2018-12-29T01:03:34.338Z,64.90
2018-12-29T01:06:04.670Z,66.30
2018-12-29T01:08:35.041Z,66.15
2018-12-29T01:11:05.392Z,62.23
2018-12-29T01:13:35.690Z,63.05
2018-12-29T01:16:06.054Z,63.17
2018-12-29T01:18:36.380Z,62.88
2018-12-29T01:21:06.712Z,61.88
2018-12-29T01:23:37.044Z,62.73
2018-12-29T01:26:07.389Z,61.08
2018-12-29T01:28:37.654Z,61.33
2018-12-29T01:31:07.933Z,60.08
2018-12-29T01:33:38.264Z,60.10
2018-12-29T01:36:08.628Z,59.42
2018-12-29T01:38:38.962Z,57.62
2018-12-29T01:41:09.315Z,56.50
2018-12-29T01:46:41.825Z,55.35
2018-12-29T01:49:12.091Z,56.63
2018-12-29T01:51:42.399Z,53.92
2018-12-29T01:54:12.759Z,54.63
2018-12-29T01:56:43.110Z,53.55
2018-12-29T01:59:13.395Z,54.15
2018-12-29T02:01:43.732Z,55.28
2018-12-29T02:04:14.074Z,53.55
2018-12-29T02:06:44.509Z,53.02
2018-12-29T02:09:14.756Z,51.35
2018-12-29T02:11:45.014Z,52.15
2018-12-29T02:14:15.384Z,49.63
2018-12-29T02:17:05.234Z,49.95
2018-12-29T02:22:17.322Z,48.15
2018-12-29T02:24:47.671Z,49.70
2018-12-29T02:27:17.982Z,47.53
2018-12-29T02:29:48.327Z,47.60
2018-12-29T02:32:18.677Z,46.88
2018-12-29T02:34:48.945Z,47.20
2018-12-29T02:43:03.938Z,44.75
2018-12-29T02:45:34.271Z,43.85
2018-12-29T02:48:04.665Z,43.87
2018-12-29T02:50:35.066Z,45.60
2018-12-29T02:53:05.352Z,41.30
2018-12-29T02:55:35.683Z,44.00
2018-12-29T02:58:06.013Z,42.80
2018-12-29T03:00:36.334Z,41.80
2018-12-29T03:03:06.668Z,40.35
2018-12-29T03:05:36.954Z,41.50
2018-12-29T03:08:07.231Z,40.92
2018-12-29T03:10:37.513Z,41.40
2018-12-29T03:13:07.955Z,40.60
2018-12-29T03:15:41.574Z,39.90
2018-12-29T03:18:29.809Z,39.70
2018-12-29T03:21:00.119Z,40.25
2018-12-29T03:23:30.446Z,42.50
2018-12-29T03:26:00.746Z,37.88
2018-12-29T03:28:31.076Z,36.80
2018-12-29T03:31:01.444Z,37.90
2018-12-29T03:33:31.755Z,35.52
2018-12-29T03:36:02.112Z,35.80
2018-12-29T03:38:32.447Z,37.88
2018-12-29T03:41:02.811Z,34.63
2018-12-29T03:43:33.163Z,34.67
2018-12-29T03:46:03.432Z,34.33
2018-12-29T03:48:33.702Z,35.13
2018-12-29T03:51:04.021Z,35.52
2018-12-29T03:53:34.340Z,34.10
2018-12-29T03:59:49.429Z,32.73
2018-12-29T04:02:19.763Z,32.30
2018-12-29T04:04:50.066Z,33.70
2018-12-29T04:07:20.424Z,32.40
2018-12-29T04:09:50.785Z,32.17
2018-12-29T04:12:23.937Z,32.38
2018-12-29T04:14:54.293Z,31.23
2018-12-29T04:17:24.539Z,30.68
2018-12-29T04:28:41.960Z,30.90
2018-12-29T04:31:12.294Z,29.72
2018-12-29T04:33:42.645Z,31.27
2018-12-29T04:36:12.912Z,30.10
2018-12-29T04:38:43.223Z,28.98
2018-12-29T04:41:13.479Z,28.90
2018-12-29T04:43:43.830Z,28.47
2018-12-29T04:46:14.175Z,29.12
2018-12-29T04:51:39.658Z,28.07
2018-12-29T04:54:09.999Z,27.98
2018-12-29T04:56:40.388Z,25.80
2018-12-29T04:59:10.610Z,27.42
2018-12-29T05:01:40.981Z,26.30
2018-12-29T05:04:11.305Z,26.30
2018-12-29T05:06:41.583Z,26.35
2018-12-29T05:09:11.921Z,25.62
2018-12-29T05:11:42.256Z,25.40
2018-12-29T05:14:12.590Z,25.75
2018-12-29T05:16:42.972Z,25.97
2018-12-29T05:19:13.303Z,24.77
2018-12-29T05:21:43.653Z,24.70
2018-12-29T05:24:13.999Z,23.98
2018-12-29T05:26:44.386Z,23.80
2018-12-29T05:29:14.665Z,23.30
2018-12-29T05:31:44.987Z,24.23
2018-12-29T05:34:15.272Z,24.32
2018-12-29T05:36:45.610Z,22.05
2018-12-29T05:39:15.903Z,22.42
2018-12-29T05:41:46.204Z,23.65
2018-12-29T05:47:11.530Z,23.18
2018-12-29T05:49:42.015Z,23.87
2018-12-29T05:52:12.388Z,26.05
2018-12-29T05:54:42.730Z,69.60
2018-12-29T05:57:13.053Z,62.60
2018-12-29T05:59:43.410Z,55.03
2018-12-29T06:02:13.807Z,47.67
2018-12-29T06:04:44.122Z,46.45
2018-12-29T06:09:56.971Z,40.83
2018-12-29T06:12:27.259Z,40.25
2018-12-29T06:14:57.586Z,48.83
2018-12-29T06:17:27.945Z,45.65
2018-12-29T06:19:58.273Z,50.30
2018-12-29T06:22:28.563Z,66.15
2018-12-29T06:24:58.875Z,94.00
2018-12-29T06:27:29.218Z,87.37
2018-12-29T06:29:59.512Z,69.80
2018-12-29T06:32:29.797Z,60.35
2018-12-29T06:35:00.254Z,66.60
2018-12-29T06:37:30.570Z,62.05
2018-12-29T06:45:58.377Z,62.85
2018-12-29T06:48:28.711Z,59.93
2018-12-29T06:51:00.604Z,61.70
2018-12-29T06:53:30.942Z,62.13
2018-12-29T06:56:01.348Z,63.55
2018-12-29T06:58:31.747Z,75.08
2018-12-29T07:01:02.133Z,59.75
2018-12-29T07:03:32.454Z,60.00
2018-12-29T07:06:02.759Z,60.00
2018-12-29T07:08:33.158Z,58.55
2018-12-29T07:11:03.486Z,59.73
2018-12-29T07:13:33.781Z,56.98
2018-12-29T07:16:04.037Z,59.13
2018-12-29T07:18:34.409Z,59.25
2018-12-29T07:21:16.652Z,58.05
2018-12-29T07:23:46.948Z,58.50
2018-12-29T07:26:17.280Z,58.98
2018-12-29T07:28:47.646Z,57.73
2018-12-29T07:31:17.898Z,56.40
2018-12-29T07:33:48.239Z,54.73
2018-12-29T07:36:18.601Z,57.93
2018-12-29T07:38:48.932Z,55.25
2018-12-29T07:41:19.292Z,55.12
2018-12-29T07:43:49.617Z,53.50
2018-12-29T07:46:19.901Z,53.92
2018-12-29T07:48:50.167Z,53.33
2018-12-29T07:51:20.464Z,53.20
2018-12-29T07:53:50.820Z,52.83
2018-12-29T07:56:21.084Z,51.08
2018-12-29T07:58:51.372Z,52.73
2018-12-29T08:01:21.697Z,52.70
2018-12-29T08:03:52.027Z,49.13
2018-12-29T08:06:22.283Z,48.30
2018-12-29T08:08:52.741Z,49.05
2018-12-29T08:11:23.076Z,48.08
2018-12-29T08:13:53.462Z,47.60
2018-12-29T08:16:35.767Z,47.25
2018-12-29T08:19:06.059Z,45.98
2018-12-29T08:21:36.389Z,46.40
2018-12-29T08:24:06.694Z,45.98
2018-12-29T08:26:37.065Z,45.43
2018-12-29T08:29:07.368Z,45.08
2018-12-29T08:31:37.638Z,42.70
2018-12-29T08:34:07.987Z,42.40
2018-12-29T08:36:38.366Z,43.63
2018-12-29T08:39:08.708Z,42.60
2018-12-29T08:41:39.105Z,40.10
2018-12-29T08:44:09.452Z,39.53
2018-12-29T08:46:39.801Z,38.63
2018-12-29T08:49:10.135Z,40.80
2018-12-29T08:51:40.398Z,40.73
2018-12-29T08:54:10.744Z,38.95
2018-12-29T08:56:41.080Z,39.75
2018-12-29T08:59:11.360Z,37.98
2018-12-29T09:01:41.619Z,38.28
2018-12-29T09:04:11.987Z,37.42
2018-12-29T09:06:42.343Z,37.13
2018-12-29T09:09:12.634Z,35.10
2018-12-29T09:11:42.992Z,37.70
2018-12-29T09:14:13.247Z,34.70
2018-12-29T09:16:43.528Z,36.30
2018-12-29T09:19:13.897Z,35.05
2018-12-29T09:21:44.184Z,33.38
2018-12-29T09:24:14.515Z,34.88
2018-12-29T09:26:46.415Z,33.53
2018-12-29T09:29:16.692Z,33.08
2018-12-29T09:31:47.063Z,33.08
2018-12-29T09:34:22.386Z,33.67
2018-12-29T09:37:34.676Z,32.30
2018-12-29T09:40:05.068Z,32.10
2018-12-29T09:42:35.364Z,31.97
2018-12-29T09:45:05.915Z,30.95
2018-12-29T09:47:36.280Z,29.10
2018-12-29T09:50:06.916Z,30.15
2018-12-29T09:52:37.276Z,31.12
2018-12-29T10:13:10.082Z,28.00
2018-12-29T10:15:40.443Z,26.37
2018-12-29T10:18:10.708Z,27.10
2018-12-29T10:20:41.122Z,27.70
2018-12-29T10:23:11.464Z,26.27
2018-12-29T10:25:41.747Z,25.90
2018-12-29T10:28:12.818Z,26.52
2018-12-29T10:36:50.708Z,25.00
2018-12-29T10:39:21.161Z,25.35
2018-12-29T10:41:51.420Z,23.80
2018-12-29T10:44:40.644Z,24.67
2018-12-29T10:47:11.013Z,24.20
2018-12-29T10:49:41.304Z,24.55
2018-12-29T10:52:11.670Z,23.67
2018-12-29T10:54:42.125Z,23.15
2018-12-29T10:57:12.460Z,22.93
2018-12-29T10:59:42.851Z,23.35
2018-12-29T11:02:13.178Z,22.62
2018-12-29T11:04:43.460Z,23.45
2018-12-29T11:07:13.787Z,22.42
2018-12-29T11:09:44.129Z,23.05
2018-12-29T11:12:14.387Z,21.65
2018-12-29T11:14:44.715Z,22.37
2018-12-29T11:17:15.203Z,21.80
2018-12-29T11:19:45.463Z,22.70
2018-12-29T11:22:17.340Z,22.05
2018-12-29T11:24:47.697Z,21.75
2018-12-29T11:27:17.982Z,20.82
2018-12-29T11:29:48.238Z,20.75
2018-12-29T11:32:18.610Z,20.55
2018-12-29T11:34:48.903Z,20.90
2018-12-29T11:37:19.230Z,19.82
2018-12-29T11:39:49.586Z,20.50
2018-12-29T11:42:19.857Z,19.73
2018-12-29T11:44:50.219Z,18.90
2018-12-29T11:47:20.563Z,19.85
2018-12-29T11:49:50.908Z,19.52
2018-12-29T11:52:21.247Z,19.40
2018-12-29T11:54:51.621Z,20.15
2018-12-29T11:57:21.955Z,18.20
2018-12-29T11:59:52.287Z,18.02
2018-12-29T12:05:17.284Z,17.80
2018-12-29T12:07:47.569Z,18.77
2018-12-29T12:10:17.834Z,18.67
2018-12-29T12:12:48.195Z,19.35
2018-12-29T12:15:18.578Z,18.70
2018-12-29T12:17:48.896Z,18.98
2018-12-29T12:20:19.223Z,17.25
2018-12-29T12:22:49.509Z,18.17
2018-12-29T12:25:19.793Z,17.00
2018-12-29T12:28:10.888Z,17.23
2018-12-29T12:30:41.160Z,16.93
2018-12-29T12:33:18.538Z,17.05
2018-12-29T12:35:48.810Z,16.75
2018-12-29T12:38:19.315Z,16.05
2018-12-29T12:40:49.657Z,16.65
2018-12-29T12:46:43.103Z,15.65
2018-12-29T12:49:53.010Z,16.75
2018-12-29T12:52:43.897Z,15.23
2018-12-29T12:55:14.186Z,16.07
2018-12-29T12:57:44.538Z,15.38
2018-12-29T13:03:19.188Z,15.08
2018-12-29T13:08:53.469Z,14.90
2018-12-29T13:14:27.751Z,14.75
2018-12-29T13:16:58.093Z,14.33
2018-12-29T13:19:28.764Z,15.50
2018-12-29T13:22:19.445Z,14.13
2018-12-29T13:24:49.826Z,13.65
2018-12-29T13:27:20.188Z,14.00
2018-12-29T13:29:50.458Z,13.32
2018-12-29T13:32:20.740Z,13.68
2018-12-29T13:34:51.068Z,13.78
2018-12-29T13:37:42.159Z,12.88
2018-12-29T13:40:12.516Z,13.83
2018-12-29T13:42:42.954Z,13.85
2018-12-29T13:48:46.602Z,13.48
2018-12-29T13:51:16.941Z,13.03
2018-12-29T13:53:47.239Z,13.30
2018-12-29T13:56:17.566Z,13.13
2018-12-29T13:58:47.869Z,13.32
2018-12-29T14:01:18.251Z,13.35
2018-12-29T14:03:48.617Z,12.58
2018-12-29T14:06:18.946Z,13.35
2018-12-29T14:09:10.258Z,12.13
2018-12-29T14:11:40.646Z,11.80
2018-12-29T14:14:12.552Z,12.70
2018-12-29T14:16:49.751Z,13.45
2018-12-29T14:19:20.112Z,12.53
2018-12-29T14:21:50.489Z,12.68
2018-12-29T14:24:20.843Z,12.35
2018-12-29T14:26:51.323Z,12.60
2018-12-29T14:29:21.655Z,12.78
2018-12-29T14:31:52.048Z,12.15
2018-12-29T14:34:22.407Z,12.70
2018-12-29T14:36:52.709Z,11.70
2018-12-29T14:39:23.071Z,11.57
2018-12-29T14:41:53.362Z,12.18
2018-12-29T14:44:23.974Z,12.03
2018-12-29T14:46:54.324Z,12.05
2018-12-29T14:49:24.660Z,11.90
2018-12-29T14:51:54.938Z,10.82
2018-12-29T14:54:25.293Z,11.57
2018-12-29T14:56:55.625Z,11.85
2018-12-29T14:59:46.730Z,11.55
2018-12-29T15:02:17.095Z,11.60
2018-12-29T15:04:47.452Z,10.95
2018-12-29T15:07:18.083Z,10.43
2018-12-29T15:09:48.423Z,10.98
2018-12-29T15:12:18.783Z,11.12
2018-12-29T15:14:49.111Z,10.93
2018-12-29T15:17:38.518Z,11.05
2018-12-29T15:20:09.292Z,10.30
2018-12-29T15:22:39.723Z,10.60
2018-12-29T15:25:10.056Z,10.68
2018-12-29T15:27:47.477Z,10.72
2018-12-29T15:30:36.870Z,10.10
2018-12-29T15:33:07.163Z,10.65
2018-12-29T15:35:37.504Z,10.60
2018-12-29T15:38:14.671Z,10.08
2018-12-29T15:40:45.006Z,10.48
2018-12-29T15:43:15.741Z,10.75
2018-12-29T15:45:46.114Z,10.48
2018-12-29T15:48:35.524Z,9.90
2018-12-29T15:51:06.132Z,10.75
2018-12-29T15:56:25.720Z,10.08
2018-12-29T15:58:56.049Z,9.70
2018-12-29T16:02:12.774Z,10.00
2018-12-29T16:04:43.051Z,10.25
2018-12-29T16:07:13.421Z,10.60
2018-12-29T16:09:43.862Z,10.25
2018-12-29T16:12:21.354Z,9.88
2018-12-29T16:14:51.677Z,10.00
2018-12-29T16:17:22.059Z,11.73
2018-12-29T16:19:52.583Z,11.18
2018-12-29T16:22:22.986Z,221.65
2018-12-29T16:24:53.323Z,45.05
2018-12-29T16:27:23.708Z,33.33
2018-12-29T16:29:55.604Z,34.40
2018-12-29T16:32:45.041Z,32.48
2018-12-29T16:35:16.375Z,26.75
2018-12-29T16:37:46.693Z,27.60
2018-12-29T16:40:17.038Z,21.30
2018-12-29T16:42:47.870Z,23.87
2018-12-29T16:45:38.864Z,22.17
2018-12-29T16:48:16.599Z,20.62
2018-12-29T16:50:46.894Z,20.00
2018-12-29T16:53:17.309Z,20.80
2018-12-29T16:55:47.662Z,20.27
2018-12-29T16:58:18.011Z,19.45
2018-12-29T17:07:00.778Z,27.75
2018-12-29T17:09:31.147Z,25.10
2018-12-29T17:12:01.406Z,23.83
2018-12-29T17:14:33.238Z,22.67
2018-12-29T17:17:22.876Z,24.92
2018-12-29T17:19:53.655Z,23.55
2018-12-29T17:22:23.960Z,21.45
2018-12-29T17:24:54.346Z,21.87
2018-12-29T17:27:24.691Z,22.60
2018-12-29T17:30:02.120Z,20.97
2018-12-29T17:32:32.450Z,20.37
2018-12-29T17:35:02.796Z,20.08
2018-12-29T17:37:33.138Z,19.75
2018-12-29T17:40:03.475Z,20.25
2018-12-29T17:42:54.555Z,23.18
2018-12-29T17:45:24.893Z,22.90
2018-12-29T17:47:55.332Z,19.32
2018-12-29T17:57:01.233Z,18.23
2018-12-29T17:59:31.602Z,19.05
2018-12-29T18:02:01.957Z,18.75
2018-12-29T18:05:32.637Z,18.95
2018-12-29T18:13:54.713Z,16.95
2018-12-29T18:17:11.639Z,17.57
2018-12-29T18:19:41.995Z,17.90
2018-12-29T18:22:12.553Z,17.45
2018-12-29T18:24:42.909Z,16.67
2018-12-29T18:27:13.202Z,17.40
2018-12-29T18:29:43.496Z,16.80
2018-12-29T18:32:13.853Z,17.23
2018-12-29T18:34:44.458Z,16.62
2018-12-29T18:38:01.046Z,17.55
2018-12-29T18:40:31.392Z,14.60
2018-12-29T18:43:01.757Z,17.17
2018-12-29T18:45:32.268Z,16.55
2018-12-29T18:48:02.627Z,16.05
2018-12-29T18:50:32.975Z,16.87
2018-12-29T18:53:03.272Z,16.32
2018-12-29T18:55:33.548Z,15.88
2018-12-29T18:58:15.369Z,16.37
2018-12-29T19:00:47.729Z,16.80
2018-12-29T19:03:18.275Z,16.42
2018-12-29T19:05:48.615Z,16.27
2018-12-29T19:08:19.007Z,16.45
2018-12-29T19:10:49.344Z,15.83
2018-12-29T19:14:06.567Z,16.12
2018-12-29T19:22:33.791Z,17.12
2018-12-29T19:25:04.265Z,16.23
2018-12-29T19:27:34.609Z,16.97
2018-12-29T19:30:05.413Z,16.65
2018-12-29T19:32:42.776Z,16.02
2018-12-29T19:38:22.822Z,16.60
2018-12-29T19:40:54.299Z,17.42
2018-12-29T19:43:31.797Z,17.32
2018-12-29T19:46:04.663Z,18.50
2018-12-29T19:48:35.002Z,16.48
2018-12-29T19:51:05.397Z,17.20
2018-12-29T19:53:48.647Z,16.82
2018-12-29T19:56:18.992Z,17.95
2018-12-29T19:58:49.351Z,20.20
2018-12-29T20:01:19.816Z,17.48
2018-12-29T20:03:50.170Z,17.17
2018-12-29T20:06:20.512Z,17.35
2018-12-29T20:08:50.882Z,17.40
2018-12-29T20:11:40.292Z,16.50
2018-12-29T20:14:10.691Z,17.25
2018-12-29T20:16:41.072Z,17.35
2018-12-29T20:19:11.472Z,16.80
2018-12-29T20:21:41.815Z,18.77
2018-12-29T20:24:12.283Z,17.62
2018-12-29T20:29:52.881Z,17.20
2018-12-29T20:32:23.260Z,17.70
2018-12-29T20:34:53.616Z,17.55
2018-12-29T20:37:23.944Z,17.70
2018-12-29T20:39:54.376Z,17.12
2018-12-29T20:42:24.745Z,16.87
2018-12-29T20:44:55.089Z,18.60
2018-12-29T20:47:25.485Z,17.92
2018-12-29T20:49:55.746Z,18.30
2018-12-29T20:52:26.104Z,17.52
2018-12-29T20:55:03.819Z,29.10
2018-12-29T20:57:34.191Z,44.88
2018-12-29T21:00:06.940Z,43.05
2018-12-29T21:02:37.307Z,44.58
2018-12-29T21:05:07.643Z,42.75
2018-12-29T21:07:56.850Z,40.28
2018-12-29T21:10:27.190Z,42.67
2018-12-29T21:12:57.526Z,41.02
2018-12-29T21:18:36.768Z,39.90
2018-12-29T21:21:14.312Z,38.80
2018-12-29T21:23:44.681Z,35.65
2018-12-29T21:26:15.046Z,36.70
2018-12-29T21:28:45.321Z,36.42
2018-12-29T21:31:34.703Z,35.63
2018-12-29T21:34:04.996Z,37.03
2018-12-29T21:36:35.357Z,34.98
2018-12-29T21:39:07.283Z,34.45
2018-12-29T21:41:37.815Z,33.92
2018-12-29T21:44:08.139Z,33.65
2018-12-29T21:46:38.504Z,34.33
2018-12-29T21:49:08.841Z,32.60
2018-12-29T21:51:39.179Z,33.13
2018-12-29T21:54:09.567Z,33.40
2018-12-29T21:56:39.892Z,33.50
2018-12-29T21:59:10.237Z,32.13
2018-12-29T22:01:40.575Z,32.23
2018-12-29T22:04:10.928Z,32.48
2018-12-29T22:06:41.181Z,30.70
2018-12-29T22:09:11.550Z,33.35
2018-12-29T22:11:41.880Z,45.70
2018-12-29T22:14:12.176Z,56.53
2018-12-29T22:16:42.524Z,47.45
2018-12-29T22:19:12.817Z,43.58
2018-12-29T22:21:43.147Z,42.35
2018-12-29T22:24:13.587Z,41.90
2018-12-29T22:26:43.951Z,41.40
2018-12-29T22:29:14.575Z,41.37
2018-12-29T22:31:44.927Z,38.73
2018-12-29T22:34:15.200Z,40.75
2018-12-29T22:36:45.567Z,41.30
2018-12-29T22:42:43.388Z,40.95
2018-12-29T22:45:13.752Z,41.23
2018-12-29T22:47:44.169Z,42.17
2018-12-29T22:50:14.422Z,41.55
2018-12-29T22:52:44.938Z,42.38
2018-12-29T22:55:15.523Z,40.85
2018-12-29T22:57:46.219Z,48.68
2018-12-29T23:00:35.530Z,48.42
2018-12-29T23:03:05.805Z,52.00
2018-12-29T23:05:36.156Z,60.33
2018-12-29T23:11:03.053Z,56.10
2018-12-29T23:13:33.321Z,55.55
2018-12-29T23:16:03.713Z,56.70
2018-12-29T23:18:34.042Z,57.40
2018-12-29T23:21:04.375Z,55.43
2018-12-29T23:23:34.711Z,59.80
2018-12-29T23:26:05.094Z,57.55
2018-12-29T23:28:35.436Z,57.67
2018-12-29T23:31:26.530Z,58.45
2018-12-29T23:33:56.862Z,57.53
2018-12-29T23:42:16.097Z,57.35
2018-12-29T23:44:46.433Z,56.92
2018-12-29T23:47:16.804Z,58.52
2018-12-29T23:49:47.155Z,57.60
2018-12-29T23:55:20.344Z,57.30
2018-12-29T23:57:50.722Z,56.05
